createdAt,value
2018-09-18T00:01:58.535Z,99.80
2018-09-18T00:04:26.997Z,99.90
2018-09-18T00:06:55.294Z,99.90
2018-09-18T00:09:25.914Z,99.90
2018-09-18T00:11:54.270Z,99.90
2018-09-18T00:14:22.535Z,99.90
2018-09-18T00:16:50.925Z,99.90
2018-09-18T00:22:18.475Z,99.90
2018-09-18T00:24:46.825Z,99.90
2018-09-18T00:27:15.331Z,99.90
2018-09-18T00:29:43.705Z,99.90
2018-09-18T00:32:17.755Z,99.90
2018-09-18T00:34:45.958Z,99.90
2018-09-18T00:37:14.434Z,99.90
2018-09-18T00:39:42.748Z,99.90
2018-09-18T00:42:20.850Z,99.90
2018-09-18T00:44:49.278Z,99.90
2018-09-18T00:47:17.546Z,99.90
2018-09-18T00:49:46.660Z,99.90
2018-09-18T00:55:08.116Z,99.90
2018-09-18T00:57:36.420Z,99.90
2018-09-18T01:00:05.115Z,99.90
2018-09-18T01:02:45.610Z,99.90
2018-09-18T01:05:14.084Z,99.90
2018-09-18T01:07:42.552Z,99.90
2018-09-18T01:10:12.238Z,99.90
2018-09-18T01:12:40.712Z,99.90
2018-09-18T01:15:09.417Z,99.90
2018-09-18T01:17:37.926Z,99.90
2018-09-18T01:20:13.496Z,99.90
2018-09-18T01:22:42.002Z,99.90
2018-09-18T01:25:10.191Z,99.90
2018-09-18T01:27:38.604Z,99.90
2018-09-18T01:30:25.297Z,99.90
2018-09-18T01:32:54.240Z,99.90
2018-09-18T01:35:22.394Z,99.90
2018-09-18T01:37:50.800Z,99.90
2018-09-18T01:40:19.220Z,99.90
2018-09-18T01:42:47.589Z,99.90
2018-09-18T01:45:15.963Z,99.90
2018-09-18T01:47:48.799Z,99.90
2018-09-18T01:50:17.109Z,99.90
2018-09-18T01:52:45.610Z,99.90
2018-09-18T01:55:13.977Z,99.90
2018-09-18T01:57:59.276Z,99.90
2018-09-18T02:00:27.649Z,99.90
2018-09-18T02:02:56.047Z,99.90
2018-09-18T02:05:24.372Z,99.90
2018-09-18T02:08:06.781Z,99.90
2018-09-18T02:10:35.194Z,99.90
2018-09-18T02:13:03.556Z,99.90
2018-09-18T02:15:32.071Z,99.90
2018-09-18T02:18:02.310Z,99.90
2018-09-18T02:20:30.600Z,99.90
2018-09-18T02:22:59.002Z,99.90
2018-09-18T02:25:27.210Z,99.90
2018-09-18T02:28:09.616Z,99.90
2018-09-18T02:30:37.614Z,99.90
2018-09-18T02:33:05.912Z,99.90
2018-09-18T02:35:34.386Z,99.90
2018-09-18T02:38:17.939Z,99.90
2018-09-18T02:40:46.129Z,99.90
2018-09-18T02:43:14.548Z,99.90
2018-09-18T02:45:42.856Z,99.90
2018-09-18T02:48:12.344Z,99.90
2018-09-18T02:50:40.762Z,99.90
2018-09-18T02:53:09.294Z,99.90
2018-09-18T02:55:37.682Z,99.90
2018-09-18T02:58:06.053Z,99.90
2018-09-18T03:00:34.576Z,99.90
2018-09-18T03:03:02.978Z,99.90
2018-09-18T03:05:31.257Z,99.90
2018-09-18T03:08:03.057Z,99.90
2018-09-18T03:10:31.342Z,99.90
2018-09-18T03:12:59.628Z,99.90
2018-09-18T03:15:38.788Z,99.90
2018-09-18T03:18:07.144Z,99.90
2018-09-18T03:20:35.544Z,99.90
2018-09-18T03:23:04.105Z,99.90
2018-09-18T03:25:36.452Z,99.90
2018-09-18T03:28:05.001Z,99.90
2018-09-18T03:30:33.371Z,99.90
2018-09-18T03:33:01.768Z,99.90
2018-09-18T03:35:46.425Z,99.90
2018-09-18T03:38:14.856Z,99.90
2018-09-18T03:40:43.335Z,99.90
2018-09-18T03:43:11.629Z,99.90
2018-09-18T03:51:26.530Z,99.90
2018-09-18T03:54:05.695Z,99.90
2018-09-18T03:56:34.071Z,99.90
2018-09-18T03:59:02.581Z,99.90
2018-09-18T04:01:31.079Z,99.90
2018-09-18T04:04:23.723Z,99.90
2018-09-18T04:06:52.038Z,99.90
2018-09-18T04:09:20.298Z,99.90
2018-09-18T04:11:48.811Z,99.90
2018-09-18T04:14:34.906Z,99.90
2018-09-18T04:17:03.508Z,99.90
2018-09-18T04:19:31.804Z,99.90
2018-09-18T04:25:04.652Z,99.90
2018-09-18T04:27:32.902Z,99.90
2018-09-18T04:30:01.301Z,99.90
2018-09-18T04:32:29.578Z,99.90
2018-09-18T04:40:50.028Z,99.90
2018-09-18T04:43:18.554Z,99.90
2018-09-18T04:45:46.933Z,99.90
2018-09-18T04:48:15.231Z,99.90
2018-09-18T04:50:57.740Z,99.90
2018-09-18T04:53:26.019Z,99.90
2018-09-18T04:55:54.518Z,99.90
2018-09-18T04:58:22.916Z,99.90
2018-09-18T05:01:09.644Z,99.90
2018-09-18T05:03:38.027Z,99.90
2018-09-18T05:06:06.447Z,99.90
2018-09-18T05:08:48.562Z,99.90
2018-09-18T05:11:16.639Z,99.90
2018-09-18T05:13:45.028Z,99.90
2018-09-18T05:16:13.560Z,99.90
2018-09-18T05:18:58.476Z,99.90
2018-09-18T05:21:26.789Z,99.90
2018-09-18T05:23:55.190Z,99.90
2018-09-18T05:26:24.265Z,99.90
2018-09-18T05:28:52.617Z,99.90
2018-09-18T05:31:21.025Z,99.90
2018-09-18T05:33:49.319Z,99.90
2018-09-18T05:36:21.274Z,99.90
2018-09-18T05:38:49.684Z,99.90
2018-09-18T05:41:17.987Z,99.90
2018-09-18T05:43:46.463Z,99.90
2018-09-18T05:46:14.798Z,99.90
2018-09-18T05:48:42.993Z,99.90
2018-09-18T05:51:11.275Z,99.90
2018-09-18T05:53:39.653Z,99.90
2018-09-18T05:56:08.089Z,99.90
2018-09-18T05:58:36.488Z,99.90
2018-09-18T06:01:04.956Z,99.90
2018-09-18T06:03:33.278Z,99.90
2018-09-18T06:06:01.660Z,99.90
2018-09-18T06:08:30.076Z,99.90
2018-09-18T06:10:58.464Z,99.90
2018-09-18T06:13:27.085Z,99.90
2018-09-18T06:15:56.530Z,99.90
2018-09-18T06:18:25.023Z,99.90
2018-09-18T06:20:53.303Z,99.90
2018-09-18T06:23:21.691Z,99.60
2018-09-18T06:25:51.129Z,96.90
2018-09-18T06:28:19.401Z,94.40
2018-09-18T06:30:47.821Z,91.40
2018-09-18T06:33:16.330Z,86.40
2018-09-18T06:35:44.927Z,79.80
2018-09-18T06:38:13.290Z,73.60
2018-09-18T06:40:41.736Z,68.00
2018-09-18T06:43:10.142Z,63.30
2018-09-18T06:45:38.552Z,59.20
2018-09-18T06:48:06.888Z,55.90
2018-09-18T06:50:35.310Z,52.20
2018-09-18T06:53:03.900Z,48.60
2018-09-18T06:55:32.254Z,45.80
2018-09-18T06:58:00.408Z,44.40
2018-09-18T07:00:28.588Z,43.00
2018-09-18T07:02:56.884Z,40.70
2018-09-18T07:05:25.421Z,39.20
2018-09-18T07:07:53.923Z,38.00
2018-09-18T07:10:22.207Z,36.70
2018-09-18T07:12:50.827Z,35.10
2018-09-18T07:15:19.327Z,33.10
2018-09-18T07:17:47.595Z,32.50
2018-09-18T07:20:16.105Z,31.20
2018-09-18T07:22:44.702Z,30.20
2018-09-18T07:25:13.231Z,30.00
2018-09-18T07:27:41.613Z,29.10
2018-09-18T07:30:10.213Z,28.50
2018-09-18T07:32:38.533Z,28.20
2018-09-18T07:35:06.748Z,27.80
2018-09-18T07:37:35.024Z,27.40
2018-09-18T07:40:03.506Z,26.80
2018-09-18T07:42:31.938Z,26.40
2018-09-18T07:45:00.330Z,26.30
2018-09-18T07:47:28.606Z,25.70
2018-09-18T07:49:57.022Z,25.40
2018-09-18T07:52:26.841Z,25.00
2018-09-18T07:54:55.126Z,24.70
2018-09-18T07:57:23.528Z,24.80
2018-09-18T07:59:52.057Z,24.50
2018-09-18T08:02:20.432Z,24.40
2018-09-18T08:04:48.785Z,24.40
2018-09-18T08:07:17.185Z,24.30
2018-09-18T08:09:45.394Z,24.50
2018-09-18T08:12:13.748Z,24.30
2018-09-18T08:14:48.044Z,24.30
2018-09-18T08:17:16.576Z,24.10
2018-09-18T08:19:45.312Z,23.90
2018-09-18T08:22:13.572Z,23.80
2018-09-18T08:24:41.888Z,23.70
2018-09-18T08:27:10.276Z,23.60
2018-09-18T08:29:38.668Z,23.40
2018-09-18T08:32:07.296Z,23.30
2018-09-18T08:34:35.571Z,23.30
2018-09-18T08:37:03.867Z,23.30
2018-09-18T08:39:32.047Z,23.70
2018-09-18T08:42:00.477Z,24.20
2018-09-18T08:44:28.771Z,24.30
2018-09-18T08:47:01.406Z,24.50
2018-09-18T08:49:29.689Z,25.00
2018-09-18T08:51:58.287Z,25.50
2018-09-18T08:54:26.691Z,26.90
2018-09-18T08:56:55.271Z,28.40
2018-09-18T08:59:23.675Z,29.90
2018-09-18T09:01:52.061Z,31.30
2018-09-18T09:04:20.349Z,32.80
2018-09-18T09:06:48.538Z,33.30
2018-09-18T09:09:16.706Z,34.00
2018-09-18T09:11:45.507Z,34.70
2018-09-18T09:14:14.182Z,35.30
2018-09-18T09:16:42.577Z,35.80
2018-09-18T09:19:11.254Z,37.20
2018-09-18T09:21:39.679Z,37.90
2018-09-18T09:24:08.179Z,38.00
2018-09-18T09:26:36.518Z,38.20
2018-09-18T09:29:05.005Z,39.70
2018-09-18T09:31:33.247Z,40.50
2018-09-18T09:34:01.675Z,40.90
2018-09-18T09:36:30.305Z,41.40
2018-09-18T09:38:58.791Z,40.60
2018-09-18T09:41:27.087Z,40.90
2018-09-18T09:43:55.444Z,41.10
2018-09-18T09:46:23.666Z,40.00
2018-09-18T09:48:52.055Z,39.50
2018-09-18T09:51:20.663Z,39.50
2018-09-18T09:53:49.070Z,39.90
2018-09-18T09:56:17.322Z,39.50
2018-09-18T09:58:45.644Z,39.80
2018-09-18T10:01:19.490Z,39.20
2018-09-18T10:03:47.898Z,38.60
2018-09-18T10:06:16.373Z,38.40
2018-09-18T10:08:44.669Z,37.70
2018-09-18T10:11:12.972Z,37.70
2018-09-18T10:13:41.824Z,38.10
2018-09-18T10:16:10.189Z,38.90
2018-09-18T10:18:38.603Z,39.30
2018-09-18T10:21:06.865Z,38.90
2018-09-18T10:23:35.198Z,39.20
2018-09-18T10:26:03.686Z,39.70
2018-09-18T10:28:31.904Z,40.40
2018-09-18T10:31:00.191Z,40.60
2018-09-18T10:33:28.469Z,40.60
2018-09-18T10:35:56.757Z,40.30
2018-09-18T10:38:25.182Z,40.20
2018-09-18T10:40:53.601Z,40.40
2018-09-18T10:43:21.858Z,40.50
2018-09-18T10:45:50.360Z,40.60
2018-09-18T10:48:18.631Z,40.80
2018-09-18T10:50:46.754Z,40.80
2018-09-18T10:53:15.162Z,40.90
2018-09-18T10:55:43.668Z,41.00
2018-09-18T10:58:12.062Z,41.20
2018-09-18T11:00:40.465Z,41.30
2018-09-18T11:03:08.769Z,40.70
2018-09-18T11:05:37.177Z,40.70
2018-09-18T11:08:05.655Z,40.60
2018-09-18T11:10:34.140Z,40.50
2018-09-18T11:13:02.581Z,40.50
2018-09-18T11:15:31.021Z,41.50
2018-09-18T11:17:59.564Z,41.20
2018-09-18T11:20:27.880Z,41.10
2018-09-18T11:22:56.261Z,41.10
2018-09-18T11:25:24.649Z,41.10
2018-09-18T11:27:52.662Z,41.10
2018-09-18T11:30:21.282Z,41.00
2018-09-18T11:32:49.915Z,41.00
2018-09-18T11:35:18.377Z,41.00
2018-09-18T11:37:46.764Z,40.90
2018-09-18T11:40:15.175Z,41.80
2018-09-18T11:42:43.772Z,41.10
2018-09-18T11:45:12.168Z,40.90
2018-09-18T11:47:40.669Z,40.90
2018-09-18T11:50:09.231Z,40.90
2018-09-18T11:52:37.563Z,41.20
2018-09-18T11:55:06.174Z,41.30
2018-09-18T11:57:34.711Z,41.50
2018-09-18T12:00:03.005Z,40.80
2018-09-18T12:02:31.156Z,40.60
2018-09-18T12:04:59.624Z,40.70
2018-09-18T12:07:28.639Z,41.50
2018-09-18T12:09:56.953Z,41.40
2018-09-18T12:12:25.403Z,41.30
2018-09-18T12:14:53.829Z,41.30
2018-09-18T12:17:22.284Z,40.70
2018-09-18T12:19:50.597Z,41.00
2018-09-18T12:22:19.157Z,40.70
2018-09-18T12:24:47.473Z,40.30
2018-09-18T12:27:15.783Z,40.10
2018-09-18T12:29:44.171Z,39.30
2018-09-18T12:32:12.442Z,39.10
2018-09-18T12:34:40.768Z,38.80
2018-09-18T12:37:09.359Z,38.60
2018-09-18T12:39:37.484Z,38.30
2018-09-18T12:42:05.981Z,38.10
2018-09-18T12:44:34.268Z,38.60
2018-09-18T12:47:02.684Z,38.20
2018-09-18T12:49:31.194Z,37.90
2018-09-18T12:51:59.563Z,37.90
2018-09-18T12:54:28.183Z,37.90
2018-09-18T12:56:56.663Z,37.10
2018-09-18T12:59:25.090Z,36.20
2018-09-18T13:01:53.380Z,35.50
2018-09-18T13:04:21.686Z,35.50
2018-09-18T13:06:50.272Z,35.40
2018-09-18T13:09:18.761Z,35.70
2018-09-18T13:11:47.673Z,35.50
2018-09-18T13:14:17.227Z,35.00
2018-09-18T13:16:46.375Z,34.80
2018-09-18T13:19:15.109Z,34.60
2018-09-18T13:21:43.785Z,34.60
2018-09-18T13:24:12.735Z,34.60
2018-09-18T13:26:41.939Z,34.70
2018-09-18T13:29:10.902Z,34.50
2018-09-18T13:31:41.158Z,34.30
2018-09-18T13:34:10.694Z,34.90
2018-09-18T13:36:39.603Z,35.10
2018-09-18T13:39:09.904Z,35.10
2018-09-18T13:41:39.444Z,34.70
2018-09-18T13:44:08.440Z,34.40
2018-09-18T13:46:38.021Z,34.40
2018-09-18T13:49:07.220Z,34.10
2018-09-18T13:51:36.320Z,34.80
2018-09-18T13:54:06.444Z,34.40
2018-09-18T13:56:35.424Z,34.00
2018-09-18T13:59:04.063Z,33.80
2018-09-18T14:01:32.957Z,33.30
2018-09-18T14:04:02.617Z,33.00
2018-09-18T14:06:32.321Z,33.60
2018-09-18T14:09:01.035Z,33.70
2018-09-18T14:11:29.934Z,33.60
2018-09-18T14:13:58.659Z,33.40
2018-09-18T14:16:27.651Z,33.00
2018-09-18T14:18:56.960Z,32.90
2018-09-18T14:21:26.209Z,33.10
2018-09-18T14:23:55.188Z,33.30
2018-09-18T14:26:24.925Z,33.10
2018-09-18T14:28:53.999Z,33.10
2018-09-18T14:31:23.472Z,33.00
2018-09-18T14:33:52.756Z,33.40
2018-09-18T14:36:21.489Z,32.40
2018-09-18T14:38:49.976Z,33.20
2018-09-18T14:41:20.921Z,32.90
2018-09-18T14:43:51.181Z,32.80
2018-09-18T14:46:19.721Z,33.60
2018-09-18T14:48:48.565Z,33.10
2018-09-18T14:51:17.917Z,33.00
2018-09-18T14:53:47.603Z,33.00
2018-09-18T14:56:17.263Z,33.20
2018-09-18T14:58:46.241Z,33.10
2018-09-18T15:01:15.734Z,33.10
2018-09-18T15:03:45.072Z,33.50
2018-09-18T15:06:14.496Z,34.00
2018-09-18T15:08:43.745Z,34.10
2018-09-18T15:11:12.896Z,33.90
2018-09-18T15:13:41.992Z,33.70
2018-09-18T15:16:15.030Z,33.60
2018-09-18T15:18:44.158Z,33.60
2018-09-18T15:21:15.080Z,34.10
2018-09-18T15:23:44.178Z,33.90
2018-09-18T15:26:13.496Z,34.40
2018-09-18T15:28:42.915Z,34.50
2018-09-18T15:31:11.678Z,34.80
2018-09-18T15:33:40.258Z,34.90
2018-09-18T15:36:08.984Z,35.20
2018-09-18T15:38:38.916Z,35.60
2018-09-18T15:41:09.137Z,36.20
2018-09-18T15:43:39.215Z,36.00
2018-09-18T15:46:08.671Z,36.10
2018-09-18T15:48:37.168Z,36.40
2018-09-18T15:51:06.449Z,36.70
2018-09-18T15:53:35.553Z,37.10
2018-09-18T15:56:05.267Z,37.10
2018-09-18T15:58:34.398Z,37.50
2018-09-18T16:01:03.470Z,38.10
2018-09-18T16:03:34.574Z,38.30
2018-09-18T16:06:03.750Z,38.70
2018-09-18T16:08:32.697Z,39.20
2018-09-18T16:11:01.290Z,39.60
2018-09-18T16:13:30.614Z,40.10
2018-09-18T16:15:59.227Z,40.60
2018-09-18T16:18:28.517Z,41.00
2018-09-18T16:20:57.731Z,41.20
2018-09-18T16:23:26.872Z,41.20
2018-09-18T16:25:56.558Z,41.30
2018-09-18T16:28:26.496Z,41.60
2018-09-18T16:30:55.800Z,41.80
2018-09-18T16:33:25.802Z,42.20
2018-09-18T16:35:55.301Z,42.60
2018-09-18T16:38:24.125Z,43.00
2018-09-18T16:40:53.867Z,43.10
2018-09-18T16:43:23.606Z,43.20
2018-09-18T16:45:52.606Z,43.40
2018-09-18T16:48:21.273Z,44.00
2018-09-18T16:50:50.758Z,44.50
2018-09-18T16:53:21.219Z,45.00
2018-09-18T16:55:50.267Z,46.30
2018-09-18T16:58:23.151Z,47.30
2018-09-18T17:00:52.407Z,48.00
2018-09-18T17:03:23.826Z,48.60
2018-09-18T17:05:52.776Z,48.90
2018-09-18T17:08:21.695Z,49.00
2018-09-18T17:10:50.362Z,49.30
2018-09-18T17:13:19.704Z,49.50
2018-09-18T17:15:48.939Z,50.20
2018-09-18T17:18:18.142Z,50.70
2018-09-18T17:20:47.123Z,51.00
2018-09-18T17:23:16.197Z,51.20
2018-09-18T17:25:45.628Z,52.10
2018-09-18T17:28:14.380Z,51.90
2018-09-18T17:30:43.389Z,52.10
2018-09-18T17:33:14.305Z,52.00
2018-09-18T17:35:43.701Z,52.10
2018-09-18T17:38:13.493Z,52.40
2018-09-18T17:40:42.712Z,52.50
2018-09-18T17:43:14.203Z,52.80
2018-09-18T17:45:43.557Z,53.00
2018-09-18T17:48:13.202Z,53.10
2018-09-18T17:50:44.703Z,53.60
2018-09-18T17:53:14.102Z,53.90
2018-09-18T17:55:42.688Z,54.10
2018-09-18T17:58:12.159Z,54.40
2018-09-18T18:00:41.461Z,54.70
2018-09-18T18:03:10.174Z,54.90
2018-09-18T18:05:40.529Z,55.10
2018-09-18T18:08:09.988Z,55.60
2018-09-18T18:10:39.109Z,55.70
2018-09-18T18:13:08.324Z,56.00
2018-09-18T18:15:38.556Z,56.10
2018-09-18T18:18:08.207Z,56.90
2018-09-18T18:20:37.777Z,56.70
2018-09-18T18:23:06.655Z,56.80
2018-09-18T18:25:36.049Z,57.10
2018-09-18T18:28:06.355Z,57.30
2018-09-18T18:30:35.446Z,57.50
2018-09-18T18:33:04.179Z,57.90
2018-09-18T18:35:38.701Z,58.00
2018-09-18T18:38:08.482Z,58.30
2018-09-18T18:40:37.171Z,58.70
2018-09-18T18:43:06.234Z,58.90
2018-09-18T18:45:35.596Z,59.20
2018-09-18T18:48:04.866Z,59.50
2018-09-18T18:50:33.470Z,59.80
2018-09-18T18:53:02.241Z,60.20
2018-09-18T18:55:32.572Z,60.70
2018-09-18T18:58:01.774Z,61.20
2018-09-18T19:00:30.805Z,61.80
2018-09-18T19:03:02.063Z,62.30
2018-09-18T19:05:31.285Z,62.90
2018-09-18T19:08:00.314Z,63.40
2018-09-18T19:10:29.693Z,63.90
2018-09-18T19:12:58.500Z,64.40
2018-09-18T19:15:27.032Z,65.10
2018-09-18T19:17:55.964Z,65.00
2018-09-18T19:20:25.344Z,66.50
2018-09-18T19:22:55.588Z,67.00
2018-09-18T19:25:24.745Z,67.90
2018-09-18T19:27:53.728Z,68.50
2018-09-18T19:30:29.725Z,69.20
2018-09-18T19:32:59.262Z,70.00
2018-09-18T19:35:28.846Z,70.60
2018-09-18T19:38:04.073Z,71.30
2018-09-18T19:40:32.940Z,71.90
2018-09-18T19:43:02.349Z,72.60
2018-09-18T19:45:31.629Z,73.20
2018-09-18T19:48:02.623Z,73.80
2018-09-18T19:50:31.673Z,74.40
2018-09-18T19:53:00.907Z,75.10
2018-09-18T19:55:30.991Z,75.50
2018-09-18T19:58:00.050Z,76.20
2018-09-18T20:00:30.192Z,76.80
2018-09-18T20:03:00.142Z,77.50
2018-09-18T20:05:29.667Z,78.00
2018-09-18T20:07:58.684Z,78.70
2018-09-18T20:10:27.680Z,79.30
2018-09-18T20:12:56.370Z,80.00
2018-09-18T20:15:27.822Z,80.60
2018-09-18T20:17:57.266Z,82.00
2018-09-18T20:20:26.022Z,81.50
2018-09-18T20:22:58.607Z,82.50
2018-09-18T20:25:28.114Z,83.00
2018-09-18T20:27:56.958Z,83.70
2018-09-18T20:30:26.188Z,84.30
2018-09-18T20:32:55.372Z,84.80
2018-09-18T20:35:24.026Z,85.40
2018-09-18T20:37:52.992Z,86.20
2018-09-18T20:40:22.274Z,86.70
2018-09-18T20:42:54.903Z,87.40
2018-09-18T20:45:23.882Z,88.00
2018-09-18T20:47:52.481Z,88.70
2018-09-18T20:50:22.955Z,89.20
2018-09-18T20:52:54.733Z,89.70
2018-09-18T20:55:23.924Z,90.10
2018-09-18T20:57:53.620Z,90.30
2018-09-18T21:00:22.775Z,90.60
2018-09-18T21:02:52.020Z,90.80
2018-09-18T21:05:20.881Z,90.90
2018-09-18T21:07:49.912Z,91.10
2018-09-18T21:10:19.049Z,91.40
2018-09-18T21:12:48.391Z,91.60
2018-09-18T21:15:17.671Z,91.70
2018-09-18T21:17:46.572Z,91.90
2018-09-18T21:20:15.466Z,92.10
2018-09-18T21:22:44.822Z,92.30
2018-09-18T21:25:21.106Z,92.50
2018-09-18T21:27:50.969Z,92.70
2018-09-18T21:30:25.702Z,93.00
2018-09-18T21:32:55.050Z,93.10
2018-09-18T21:35:24.033Z,93.30
2018-09-18T21:37:52.947Z,93.20
2018-09-18T21:40:24.025Z,93.60
2018-09-18T21:42:53.731Z,93.70
2018-09-18T21:45:22.884Z,93.80
2018-09-18T21:47:52.814Z,94.00
2018-09-18T21:50:25.506Z,94.10
2018-09-18T21:53:03.554Z,94.30
2018-09-18T21:55:32.499Z,94.40
2018-09-18T21:58:02.159Z,94.60
2018-09-18T22:00:31.429Z,94.80
2018-09-18T22:03:01.114Z,95.00
2018-09-18T22:05:30.354Z,95.10
2018-09-18T22:08:00.249Z,95.20
2018-09-18T22:10:31.365Z,95.00
2018-09-18T22:13:01.962Z,95.60
2018-09-18T22:15:31.952Z,95.80
2018-09-18T22:18:01.126Z,95.90
2018-09-18T22:20:30.191Z,96.10
2018-09-18T22:22:59.328Z,96.20
2018-09-18T22:25:28.584Z,96.40
2018-09-18T22:27:57.505Z,96.50
2018-09-18T22:30:26.212Z,96.70
2018-09-18T22:32:55.869Z,96.80
2018-09-18T22:35:25.680Z,96.90
2018-09-18T22:37:54.849Z,97.00
2018-09-18T22:40:23.490Z,97.10
2018-09-18T22:42:54.783Z,97.30
2018-09-18T22:45:23.633Z,97.40
2018-09-18T22:47:52.686Z,97.50
2018-09-18T22:50:21.071Z,97.60
2018-09-18T22:52:49.687Z,97.70
2018-09-18T22:55:18.787Z,97.80
2018-09-18T22:57:47.582Z,98.00
2018-09-18T23:00:17.452Z,98.10
2018-09-18T23:02:47.666Z,98.20
2018-09-18T23:05:16.321Z,98.30
2018-09-18T23:07:45.219Z,98.50
2018-09-18T23:10:14.770Z,98.60
2018-09-18T23:12:44.810Z,98.80
2018-09-18T23:15:13.234Z,99.00
2018-09-18T23:17:41.686Z,99.10
2018-09-18T23:20:11.768Z,99.30
2018-09-18T23:22:40.722Z,99.50
2018-09-18T23:25:10.948Z,99.70
2018-09-18T23:27:46.063Z,99.90
2018-09-18T23:30:15.408Z,99.90
2018-09-18T23:32:44.272Z,99.90
2018-09-18T23:35:13.698Z,99.90
2018-09-18T23:37:43.167Z,99.90
2018-09-18T23:40:12.522Z,99.90
2018-09-18T23:42:42.245Z,99.90
2018-09-18T23:45:11.092Z,99.90
2018-09-18T23:47:40.684Z,99.90
2018-09-18T23:50:09.325Z,99.90
2018-09-18T23:52:38.240Z,99.90
2018-09-18T23:55:09.125Z,99.90
2018-09-18T23:57:38.017Z,99.90
